Terminal Aerodrome Forecast
Issued by NWS

Home | Current Version | Previous Version | Text Only | Print | Product List | Glossary On
Versions: 1 2 3 4 5 6 7 8 9 10 11 12
000
FTUS45 KLKN 151724
TAFELY
TAF
KELY 151724Z 1518/1618 18008KT P6SM BKN250
     FM161200 18009KT P6SM VCSH FEW035 OVC080
     FM161500 34010G20KT 3SM -SN BKN025=

USA.gov is the U.S. government's official web portal to all federal, state and local government web resources and services.